Logo AVAMET
Benvolgut visitant, si us plau, ingressa Recuperar contrasenya

Pedreguer Ocaive

Dades diàries. Acumulats / Últims 30 dies disponibles

Data Temperatura (°C) Humitat rel. (%) Pressió rel. (hPa) Vent (km/h) Precipitació
Mínima Mitjana Màxima Amplitud
tèrmica
Mínima Mitjana Màxima Mínima Mitjana Màxima Predom. Mitjana Ràfega
màxima
Total
(mm)
Índex-n
Mínima Mitjana Màxima Mínima Mitjana Màxima n
0 a 1
P0 max
mm 5'
Dades mensuals acumulades fins l'últim dia disponible
07/2019 19,4 21,6 26,5 26,9 28,0 32,2 39,4 20,0 16 65 94 1.008 1.013 1.017   5,8 74,0 0,0
Dades anuals acumulades fins l'últim dia disponible
2019 1,2 11,1 26,5 16,2 10,6 21,2 39,4 38,2 16 66 99 994 1.018 1.036   5,1 74,0 352,2
Últims 30 dies disponibles
16-07-2019 22,2     26,1     29,7 7,5 47 65 90 1.013 1.014 1.016 SE 7,6 59,5 0,0
15-07-2019 21,4     27,1     31,9 10,5 40 67 88 1.009 1.010 1.013 SW 4,8 30,6 0,0
14-07-2019 21,3     26,1     30,1 8,8 54 76 92 1.009 1.010 1.012 NE 5,0 32,2 0,0
13-07-2019 24,4     27,9     34,7 10,3 25 59 82 1.011 1.013 1.015 NE 5,0 33,8 0,0
12-07-2019 20,7     28,4     35,8 15,1 29 46 70 1.012 1.014 1.016 SE 6,9 46,7 0,0
11-07-2019 19,4     27,0     32,9 13,5 38 52 72 1.012 1.014 1.015 SE 7,6 43,5 0,0
08-07-2019 23,6     25,6     28,3 4,7 59 78 83 1.009 1.011 1.013 S 2,1 19,3 0,0
07-07-2019 26,5     32,8     39,4 12,9 20 41 71 1.008 1.010 1.013 SW 10,5 74,0 0,0
06-07-2019 22,2     30,5     39,4 17,2 16 54 90 1.009 1.012 1.014 SSW 7,1 56,3 0,0
05-07-2019 20,3     25,8     32,0 11,7 58 77 93 1.013 1.015 1.017 SW 5,6 41,8 0,0
04-07-2019 20,1     24,9     29,1 9,0 63 75 91 1.014 1.015 1.017 SW 4,8 27,4 0,0
03-07-2019 19,4     25,0     30,6 11,2 41 66 92 1.012 1.014 1.015 SW 5,3 27,4 0,0
02-07-2019 20,6     24,9     29,5 8,9 43 76 94 1.013 1.015 1.016 NE 4,8 27,4 0,0
01-07-2019 19,7     24,6     28,0 8,3 69 78 91 1.014 1.015 1.017 NE 4,5 24,1 0,0
30-06-2019 19,4     27,3     32,2 12,8 38 50 75 1.014 1.016 1.017 SSE 4,5 27,4 0,0
29-06-2019 19,8     29,1     36,2 16,4 23 39 61 1.013 1.014 1.015 SSW 5,1 32,2 0,0
28-06-2019 20,4     28,2     35,5 15,1 27 48 70 1.014 1.016 1.018 SW 6,1 33,8 0,0
27-06-2019 20,8     25,2     30,1 9,3 52 72 93 1.017 1.019 1.020 SW 4,7 24,1 0,0
26-06-2019 22,0     23,8     27,1 5,1 71 83 92 1.017 1.018 1.019 NNE 4,7 27,4 0,0
25-06-2019 18,7     23,2     27,1 8,4 65 79 92 1.015 1.016 1.017 NE 4,8 27,4 0,0
24-06-2019 18,3     22,4     26,1 7,8 61 77 93 1.013 1.014 1.015 NE 4,8 25,7 0,0
23-06-2019 17,2     23,1     29,0 11,8 39 64 92 1.013 1.014 1.015 NE 5,5 30,6 0,0
22-06-2019 17,4     22,7     27,3 9,9 45 72 93 1.014 1.016 1.017 SW 5,8 33,8 0,0
21-06-2019 18,4     21,7     24,8 6,4 67 81 92 1.013 1.014 1.016 NE 4,3 24,1 0,0
20-06-2019 17,4     21,6     24,6 7,2 50 75 91 1.011 1.012 1.013 NE 4,5 25,7 0,0
19-06-2019 16,8     24,7     31,2 14,4 27 53 84 1.010 1.012 1.013 SW 5,5 35,4 0,0
18-06-2019 15,2     23,3     28,5 13,3 33 56 88 1.011 1.014 1.015 SE 6,8 40,2 0,0
17-06-2019 14,3     22,5     30,0 15,7 35 58 86 1.013 1.016 1.019 SE 7,7 43,5 0,0
16-06-2019 16,9     20,5     23,0 6,1 55 75 85 1.017 1.019 1.021 NE 4,2 22,5 0,0
15-06-2019 19,8     24,1     28,1 8,3 27 39 60 1.013 1.015 1.017 SW 6,8 37,0 0,0
Últims 13 mesos disponibles
06/2019 12,1 16,5 22,0 22,4 21,3 27,4 36,2 24,1 39 63 83 1.008 1.015 1.021 NE 5,5 45,1 1,0
05/2019 8,2 12,9 21,4 18,3 18,8 23,0 29,9 21,7 52 69 84 1.005 1.015 1.024 SW 5,2 59,5 11,4
04/2019 7,4 10,4 13,1 14,6 13,9 18,7 27,8 20,4 38 72 97 1.002 1.013 1.019 SW 5,8 56,3 199,2
03/2019 6,1 8,7 14,6 14,0 12,8 19,1 27,7 21,6 37 62 93 1.010 1.023 1.030 SW 4,6 57,9 58,0
02/2019 2,8 6,8 11,4 11,2 12,1 15,7 23,3 20,5 35 66 87 996 1.024 1.034 SW 4,7 64,4 0,0
01/2019 1,2 6,6 14,1 10,8 10,6 15,9 20,9 19,7 38 64 90 1.003 1.020 1.031 SW 4,6 59,5 6,4
12/2018 4,8 8,2 11,6 12,6 12,1 18,5 23,9 19,1 49 74 95 1.009 1.025 1.031 SW 2,7 53,1 36,6
11/2018 6,4 11,3 16,2 14,7 13,9 18,6 24,2 17,8 48 73 95 1.001 1.015 1.023 SW 3,7 69,2 133,8
10/2018 8,8 14,6 18,9 18,4 14,4 22,8 27,7 18,9 40 74 92 1.000 1.014 1.025 4,0 62,8 94,6
09/2018 15,1 20,2 22,7 23,7 24,3 27,8 32,4 17,3 4,0 48,3 67,8
08/2018 18,5 22,0 25,9 26,8 25,9 31,3 36,4 17,9 5,3 48,3 39,6
07/2018 19,5 21,5 24,7 26,8 27,7 31,9 35,8 16,3 6,1 48,3 2,2
06/2018 13,2 17,7 21,7 23,2 22,9 27,9 32,4 19,2 5,7 48,3 34,0
Tots els anys disponibles
2018 0,7 13,7 25,9 18,2 7,8 22,8 36,4 35,7 40 74 95 1.000 1.019 1.031 SW 5,0 72,4 601,8
2017 0,6 13,3 26,7 18,1 8,1 22,9 37,1 36,5 4,9 77,2 633,0
2016 1,3 13,8 24,5 18,3 7,8 22,8 39,1 37,8 5,5 70,8 446,8
2015 0,8 14,4 25,3 18,9 8,3 23,6 40,7 39,9 5,1 99,8 490,0
Temperatura (°C)
Humitat relativa (%)
Velocitat del vent i ràfega màxima (km/h)
Direcció del vent (°)
Pressió (hPa)
Precipitació (mm)
Nota sobre les dades: s'avisa a l'usuari de la provisionalitat i no oficialitat d'aquestes dades
Logo AVAMET blanc
Web allotjada a Sollutia
Llicència de Creative CommonsLa web d'AVAMET i els seus continguts estan subjectes a una llicència de
Reconeixement - No Comercial - Compartir igual
Properes estacions: Altea - Club Nàutic d'Altea (Soci), Ares del Maestrat (Ajuntament Soci),      - - - - -      Últimes estacions: Catadau - Urb. Lloma Molina (Inforatge), Ontinyent - El Pilar (Soci), Asp - Poliesportiu (Soci) - - -